createdAt,value
2023-05-03T00:01:19.887Z,31.57
2023-05-03T00:03:51.301Z,31.59
2023-05-03T00:06:22.336Z,31.62
2023-05-03T00:08:52.733Z,31.56
2023-05-03T00:11:23.606Z,31.60
2023-05-03T00:13:53.944Z,31.61
2023-05-03T00:16:24.186Z,31.61
2023-05-03T00:18:54.956Z,31.66
2023-05-03T00:21:25.287Z,31.66
2023-05-03T00:23:55.612Z,31.65
2023-05-03T00:26:26.148Z,31.65
2023-05-03T00:28:56.546Z,31.64
2023-05-03T00:31:26.881Z,31.65
2023-05-03T00:33:57.231Z,31.65
2023-05-03T00:36:27.577Z,31.66
2023-05-03T00:38:57.840Z,31.66
2023-05-03T00:41:28.622Z,31.66
2023-05-03T00:43:58.894Z,31.68
2023-05-03T00:46:29.302Z,31.73
2023-05-03T00:49:00.021Z,31.72
2023-05-03T00:51:30.723Z,31.74
2023-05-03T00:54:00.945Z,31.72
2023-05-03T00:56:37.983Z,31.72
2023-05-03T00:59:18.763Z,31.74
2023-05-03T01:01:54.956Z,31.74
2023-05-03T01:04:26.261Z,31.77
2023-05-03T01:07:02.113Z,31.74
2023-05-03T01:10:07.231Z,31.73
2023-05-03T01:13:06.391Z,31.76
2023-05-03T01:15:59.469Z,31.77
2023-05-03T01:18:37.124Z,31.77
2023-05-03T01:21:10.248Z,31.78
2023-05-03T01:23:55.300Z,31.82
2023-05-03T01:26:27.734Z,31.82
2023-05-03T01:28:59.278Z,31.82
2023-05-03T01:31:31.411Z,31.83
2023-05-03T01:34:20.519Z,31.84
2023-05-03T01:36:53.456Z,31.83
2023-05-03T01:39:31.550Z,31.87
2023-05-03T01:42:04.527Z,31.85
2023-05-03T01:44:36.403Z,31.86
2023-05-03T01:47:06.689Z,31.87
2023-05-03T01:49:37.739Z,31.89
2023-05-03T01:52:08.523Z,31.87
2023-05-03T01:54:38.964Z,31.87
2023-05-03T01:57:09.311Z,31.91
2023-05-03T01:59:40.159Z,31.91
2023-05-03T02:02:10.520Z,31.94
2023-05-03T02:04:41.173Z,31.95
2023-05-03T02:07:11.664Z,31.98
2023-05-03T02:09:42.033Z,32.02
2023-05-03T02:12:13.912Z,32.01
2023-05-03T02:14:44.375Z,31.99
2023-05-03T02:17:15.330Z,32.02
2023-05-03T02:19:46.270Z,32.01
2023-05-03T02:22:16.535Z,32.02
2023-05-03T02:24:46.847Z,32.01
2023-05-03T02:27:18.861Z,32.02
2023-05-03T02:29:49.392Z,32.02
2023-05-03T02:32:19.676Z,32.04
2023-05-03T02:34:51.480Z,32.08
2023-05-03T02:37:24.896Z,32.07
2023-05-03T02:39:55.702Z,32.08
2023-05-03T02:42:26.442Z,32.06
2023-05-03T02:44:57.430Z,32.07
2023-05-03T02:47:28.791Z,32.09
2023-05-03T02:49:59.366Z,32.07
2023-05-03T02:52:30.036Z,32.11
2023-05-03T02:55:00.550Z,32.13
2023-05-03T02:57:30.930Z,32.14
2023-05-03T03:00:03.232Z,32.13
2023-05-03T03:02:33.846Z,32.13
2023-05-03T03:05:04.287Z,32.20
2023-05-03T03:07:35.226Z,32.18
2023-05-03T03:10:06.962Z,32.16
2023-05-03T03:12:39.552Z,32.09
2023-05-03T03:15:14.091Z,32.18
2023-05-03T03:17:45.162Z,32.17
2023-05-03T03:20:16.347Z,32.14
2023-05-03T03:22:49.984Z,32.17
2023-05-03T03:25:20.703Z,32.19
2023-05-03T03:27:51.317Z,32.18
2023-05-03T03:30:21.865Z,32.20
2023-05-03T03:33:02.304Z,32.21
2023-05-03T03:35:40.647Z,32.24
2023-05-03T03:38:11.867Z,32.20
2023-05-03T03:40:50.199Z,32.20
2023-05-03T03:43:20.979Z,32.23
2023-05-03T03:45:52.825Z,32.22
2023-05-03T03:48:23.358Z,32.28
2023-05-03T03:50:54.384Z,32.28
2023-05-03T03:53:29.419Z,32.30
2023-05-03T03:55:59.673Z,32.30
2023-05-03T03:58:30.159Z,32.31
2023-05-03T04:01:00.921Z,32.30
2023-05-03T04:03:32.826Z,32.32
2023-05-03T04:06:03.319Z,32.30
2023-05-03T04:08:33.951Z,32.27
2023-05-03T04:11:05.377Z,32.32
2023-05-03T04:13:38.966Z,32.30
2023-05-03T04:16:10.567Z,32.33
2023-05-03T04:18:41.116Z,32.31
2023-05-03T04:21:12.204Z,32.32
2023-05-03T04:23:43.901Z,32.36
2023-05-03T04:26:30.018Z,32.33
2023-05-03T04:29:09.586Z,32.38
2023-05-03T04:31:42.072Z,32.43
2023-05-03T04:34:13.070Z,32.42
2023-05-03T04:36:44.761Z,32.45
2023-05-03T04:39:16.079Z,32.45
2023-05-03T04:41:48.620Z,32.44
2023-05-03T04:44:19.257Z,32.47
2023-05-03T04:46:52.381Z,32.45
2023-05-03T04:49:22.873Z,32.47
2023-05-03T04:51:54.555Z,32.45
2023-05-03T04:54:26.826Z,32.46
2023-05-03T04:56:58.483Z,32.47
2023-05-03T04:59:29.000Z,32.44
2023-05-03T05:02:00.064Z,32.43
2023-05-03T05:04:30.623Z,32.45
2023-05-03T05:07:01.904Z,32.45
2023-05-03T05:09:34.368Z,32.50
2023-05-03T05:12:06.583Z,32.53
2023-05-03T05:14:41.952Z,32.55
2023-05-03T05:17:12.717Z,32.58
2023-05-03T05:19:45.055Z,32.59
2023-05-03T05:22:15.363Z,32.59
2023-05-03T05:24:51.290Z,32.58
2023-05-03T05:27:23.683Z,32.59
2023-05-03T05:29:56.289Z,32.57
2023-05-03T05:32:26.754Z,32.57
2023-05-03T05:35:00.146Z,32.57
2023-05-03T05:37:31.795Z,32.53
2023-05-03T05:40:06.167Z,32.55
2023-05-03T05:42:42.838Z,32.53
2023-05-03T05:45:13.892Z,32.57
2023-05-03T05:47:46.239Z,32.60
2023-05-03T05:50:18.808Z,32.59
2023-05-03T05:52:58.578Z,32.61
2023-05-03T05:55:32.596Z,32.59
2023-05-03T05:58:04.060Z,32.63
2023-05-03T06:00:43.459Z,32.64
2023-05-03T06:03:15.165Z,32.63
2023-05-03T06:05:46.142Z,32.62
2023-05-03T06:08:16.700Z,32.66
2023-05-03T06:10:46.990Z,32.66
2023-05-03T06:13:17.601Z,32.64
2023-05-03T06:15:49.528Z,32.64
2023-05-03T06:18:20.786Z,32.64
2023-05-03T06:20:54.191Z,32.66
2023-05-03T06:23:25.256Z,32.67
2023-05-03T06:25:55.824Z,32.69
2023-05-03T06:28:27.392Z,32.71
2023-05-03T06:30:59.127Z,32.70
2023-05-03T06:33:31.641Z,32.74
2023-05-03T06:36:02.162Z,32.69
2023-05-03T06:38:32.799Z,32.71
2023-05-03T06:41:03.430Z,32.76
2023-05-03T06:43:33.966Z,32.78
2023-05-03T06:46:06.581Z,32.77
2023-05-03T06:48:36.864Z,32.78
2023-05-03T06:51:08.072Z,32.83
2023-05-03T06:53:40.374Z,32.84
2023-05-03T06:56:10.950Z,32.87
2023-05-03T06:58:41.344Z,32.87
2023-05-03T07:01:11.841Z,32.88
2023-05-03T07:03:42.350Z,32.86
2023-05-03T07:06:13.602Z,32.89
2023-05-03T07:08:43.940Z,32.90
2023-05-03T07:11:14.319Z,32.90
2023-05-03T07:13:44.421Z,32.91
2023-05-03T07:16:14.664Z,32.91
2023-05-03T07:18:44.854Z,32.94
2023-05-03T07:21:15.924Z,32.95
2023-05-03T07:23:47.048Z,32.98
2023-05-03T07:26:17.454Z,33.00
2023-05-03T07:28:48.347Z,33.00
2023-05-03T07:31:19.795Z,33.02
2023-05-03T07:33:50.617Z,33.07
2023-05-03T07:36:21.134Z,33.11
2023-05-03T07:38:51.649Z,33.12
2023-05-03T07:41:21.964Z,33.16
2023-05-03T07:43:52.586Z,33.16
2023-05-03T07:46:23.156Z,33.19
2023-05-03T07:48:53.686Z,33.20
2023-05-03T07:51:23.978Z,33.25
2023-05-03T07:53:54.634Z,33.21
2023-05-03T07:56:26.285Z,33.23
2023-05-03T07:59:07.524Z,33.25
2023-05-03T08:01:39.278Z,33.24
2023-05-03T08:04:10.424Z,33.24
2023-05-03T08:06:41.271Z,33.21
2023-05-03T08:09:11.846Z,33.21
2023-05-03T08:11:43.934Z,33.28
2023-05-03T08:14:16.533Z,33.30
2023-05-03T08:16:46.907Z,33.33
2023-05-03T08:19:17.463Z,33.37
2023-05-03T08:21:49.379Z,33.40
2023-05-03T08:24:19.666Z,33.40
2023-05-03T08:26:50.867Z,33.47
2023-05-03T08:29:21.110Z,33.43
2023-05-03T08:31:51.246Z,33.46
2023-05-03T08:34:21.735Z,33.46
2023-05-03T08:36:52.050Z,33.46
2023-05-03T08:39:22.427Z,33.47
2023-05-03T08:41:53.434Z,33.48
2023-05-03T08:44:25.786Z,33.47
2023-05-03T08:46:56.148Z,33.48
2023-05-03T08:49:27.071Z,33.50
2023-05-03T08:52:00.062Z,33.51
2023-05-03T08:54:30.787Z,33.50
2023-05-03T08:57:01.256Z,33.51
2023-05-03T08:59:32.043Z,33.55
2023-05-03T09:02:02.723Z,33.52
2023-05-03T09:04:39.237Z,33.54
2023-05-03T09:07:14.439Z,33.57
2023-05-03T09:09:47.261Z,33.60
2023-05-03T09:12:39.144Z,33.63
2023-05-03T09:15:10.001Z,33.60
2023-05-03T09:17:40.275Z,33.59
2023-05-03T09:20:11.392Z,33.61
2023-05-03T09:22:57.901Z,33.59
2023-05-03T09:25:42.502Z,33.57
2023-05-03T09:28:13.048Z,33.58
2023-05-03T09:30:43.479Z,33.59
2023-05-03T09:33:14.156Z,33.58
2023-05-03T09:36:08.079Z,33.54
2023-05-03T09:38:42.001Z,33.55
2023-05-03T09:41:13.264Z,33.59
2023-05-03T09:43:54.864Z,33.53
2023-05-03T09:46:31.725Z,33.54
2023-05-03T09:49:12.057Z,33.53
2023-05-03T09:51:44.103Z,33.54
2023-05-03T09:54:15.199Z,33.53
2023-05-03T09:56:47.139Z,33.56
2023-05-03T09:59:17.498Z,33.57
2023-05-03T10:01:48.269Z,33.56
2023-05-03T10:04:23.255Z,33.57
2023-05-03T10:06:56.404Z,33.52
2023-05-03T10:09:50.274Z,33.51
2023-05-03T10:12:21.800Z,33.53
2023-05-03T10:14:55.403Z,33.51
2023-05-03T10:20:26.263Z,33.50
2023-05-03T10:23:08.955Z,33.51
2023-05-03T10:25:40.860Z,33.51
2023-05-03T10:28:13.695Z,33.52
2023-05-03T10:30:44.130Z,33.52
2023-05-03T10:33:17.507Z,33.51
2023-05-03T10:35:56.892Z,33.51
2023-05-03T10:38:28.832Z,33.51
2023-05-03T10:40:59.840Z,33.51
2023-05-03T10:43:33.097Z,33.50
2023-05-03T10:46:21.248Z,33.50
2023-05-03T10:49:21.837Z,33.49
2023-05-03T10:51:52.787Z,33.47
2023-05-03T10:54:23.062Z,33.47
2023-05-03T10:56:55.312Z,33.44
2023-05-03T10:59:27.269Z,33.44
2023-05-03T11:01:59.136Z,33.41
2023-05-03T11:04:42.441Z,33.41
2023-05-03T11:07:12.745Z,33.42
2023-05-03T11:09:43.038Z,33.40
2023-05-03T11:12:13.330Z,33.35
2023-05-03T11:14:45.800Z,33.37
2023-05-03T11:17:16.339Z,33.37
2023-05-03T11:19:47.478Z,33.31
2023-05-03T11:22:17.446Z,33.33
2023-05-03T11:24:47.792Z,33.34
2023-05-03T11:27:25.993Z,33.32
2023-05-03T11:30:00.808Z,33.27
2023-05-03T11:32:36.524Z,33.28
2023-05-03T11:35:08.614Z,33.27
2023-05-03T11:37:39.050Z,33.28
2023-05-03T11:40:22.086Z,33.22
2023-05-03T11:43:01.278Z,33.17
2023-05-03T11:45:43.272Z,33.19
2023-05-03T11:48:15.533Z,33.19
2023-05-03T11:50:56.837Z,33.18
2023-05-03T11:53:27.341Z,33.16
2023-05-03T11:55:58.371Z,33.17
2023-05-03T11:58:29.556Z,33.14
2023-05-03T12:01:00.011Z,33.11
2023-05-03T12:03:33.570Z,33.13
2023-05-03T12:06:04.801Z,33.12
2023-05-03T12:08:38.694Z,33.09
2023-05-03T12:11:13.645Z,33.08
2023-05-03T12:13:45.001Z,33.09
2023-05-03T12:16:18.565Z,33.09
2023-05-03T12:18:55.780Z,33.06
2023-05-03T12:21:31.893Z,33.07
2023-05-03T12:24:04.906Z,33.08
2023-05-03T12:26:37.877Z,33.08
2023-05-03T12:29:10.062Z,33.07
2023-05-03T12:31:44.097Z,33.07
2023-05-03T12:34:32.694Z,33.02
2023-05-03T12:37:06.505Z,33.02
2023-05-03T12:39:39.644Z,33.02
2023-05-03T12:42:12.402Z,33.02
2023-05-03T12:44:46.922Z,33.01
2023-05-03T12:47:28.013Z,32.98
2023-05-03T12:49:59.972Z,33.00
2023-05-03T13:51:16.744Z,32.66
2023-05-03T13:53:47.288Z,32.70
2023-05-03T13:56:18.438Z,32.80
2023-05-03T13:58:48.828Z,32.87
2023-05-03T14:01:20.290Z,32.95
2023-05-03T14:03:50.845Z,32.98
2023-05-03T14:06:24.188Z,33.06
2023-05-03T14:08:56.984Z,33.09
2023-05-03T14:13:58.669Z,33.00
2023-05-03T14:19:03.338Z,32.94
2023-05-03T14:21:34.216Z,32.98
2023-05-03T14:24:04.616Z,33.01
2023-05-03T14:26:36.441Z,33.02
2023-05-03T14:29:08.115Z,32.83
2023-05-03T14:31:38.854Z,32.97
2023-05-03T14:34:09.284Z,32.83
2023-05-03T14:36:41.927Z,32.75
2023-05-03T14:39:13.035Z,32.79
2023-05-03T14:41:47.825Z,32.78
2023-05-03T14:44:18.055Z,32.76
2023-05-03T14:46:49.273Z,32.79
2023-05-03T14:49:20.055Z,32.73
2023-05-03T14:51:55.041Z,32.79
2023-05-03T14:54:25.653Z,32.69
2023-05-03T14:56:56.092Z,32.79
2023-05-03T14:59:26.343Z,32.76
2023-05-03T15:01:57.074Z,32.69
2023-05-03T15:04:28.114Z,32.68
2023-05-03T15:07:03.276Z,32.77
2023-05-03T15:09:34.206Z,32.85
2023-05-03T15:12:06.276Z,32.95
2023-05-03T15:14:37.811Z,32.82
2023-05-03T15:17:08.283Z,32.95
2023-05-03T15:19:38.674Z,32.87
2023-05-03T15:22:09.110Z,32.84
2023-05-03T15:24:39.208Z,32.90
2023-05-03T15:27:10.145Z,32.85
2023-05-03T15:29:40.377Z,32.79
2023-05-03T15:32:11.172Z,32.83
2023-05-03T15:34:41.950Z,32.79
2023-05-03T15:37:14.671Z,32.81
2023-05-03T15:39:45.047Z,32.93
2023-05-03T15:42:15.438Z,32.98
2023-05-03T15:44:49.206Z,33.08
2023-05-03T15:47:19.632Z,33.06
2023-05-03T15:49:49.813Z,33.08
2023-05-03T15:52:20.160Z,33.07
2023-05-03T15:54:50.553Z,33.04
2023-05-03T15:57:21.031Z,33.06
2023-05-03T15:59:52.016Z,33.07
2023-05-03T16:02:22.298Z,32.98
2023-05-03T16:04:53.035Z,32.92
2023-05-03T16:07:23.490Z,32.87
2023-05-03T16:09:54.213Z,32.84
2023-05-03T16:12:24.488Z,32.81
2023-05-03T16:14:54.904Z,32.83
2023-05-03T16:17:25.603Z,32.84
2023-05-03T16:19:55.923Z,32.84
2023-05-03T16:22:26.235Z,32.85
2023-05-03T16:24:56.672Z,32.85
2023-05-03T16:27:26.774Z,32.82
2023-05-03T16:29:57.321Z,32.80
2023-05-03T16:32:28.882Z,32.81
2023-05-03T16:34:59.409Z,32.83
2023-05-03T16:37:29.828Z,32.81
2023-05-03T16:40:00.301Z,32.78
2023-05-03T16:42:30.534Z,32.80
2023-05-03T16:45:00.851Z,32.76
2023-05-03T16:47:31.149Z,32.79
2023-05-03T16:50:01.456Z,32.78
2023-05-03T16:52:31.729Z,32.78
2023-05-03T16:55:01.799Z,32.76
2023-05-03T16:57:32.150Z,32.77
2023-05-03T17:00:05.687Z,32.74
2023-05-03T17:02:36.396Z,32.76
2023-05-03T17:05:07.792Z,32.76
2023-05-03T17:07:38.840Z,32.74
2023-05-03T17:10:09.733Z,32.76
2023-05-03T17:12:40.402Z,32.77
2023-05-03T17:15:11.289Z,32.79
2023-05-03T17:17:41.912Z,32.76
2023-05-03T17:20:13.317Z,32.79
2023-05-03T17:22:43.793Z,32.77
2023-05-03T17:25:14.154Z,32.80
2023-05-03T17:27:46.238Z,32.77
2023-05-03T17:30:18.773Z,32.80
2023-05-03T17:32:50.053Z,32.80
2023-05-03T17:35:20.952Z,32.76
2023-05-03T17:37:51.351Z,32.79
2023-05-03T17:40:21.804Z,32.80
2023-05-03T17:42:52.189Z,32.80
2023-05-03T17:45:23.601Z,32.79
2023-05-03T17:47:54.063Z,32.78
2023-05-03T17:50:24.562Z,32.77
2023-05-03T17:52:54.903Z,32.76
2023-05-03T17:55:25.207Z,32.76
2023-05-03T17:57:55.585Z,32.75
2023-05-03T18:00:27.879Z,32.76
2023-05-03T18:02:58.773Z,32.75
2023-05-03T18:05:29.713Z,32.75
2023-05-03T18:08:00.062Z,32.72
2023-05-03T18:10:30.453Z,32.74
2023-05-03T18:13:00.852Z,32.73
2023-05-03T18:15:31.415Z,32.74
2023-05-03T18:18:01.671Z,32.73
2023-05-03T18:20:31.928Z,32.72
2023-05-03T18:23:02.231Z,32.71
2023-05-03T18:25:32.771Z,32.75
2023-05-03T18:28:04.654Z,32.74
2023-05-03T18:30:35.098Z,32.71
2023-05-03T18:33:05.338Z,32.74
2023-05-03T18:35:35.897Z,32.73
2023-05-03T18:38:06.257Z,32.71
2023-05-03T18:40:36.420Z,32.73
2023-05-03T18:43:06.762Z,32.73
2023-05-03T18:45:41.413Z,32.71
2023-05-03T18:48:11.924Z,32.63
2023-05-03T18:50:45.184Z,32.69
2023-05-03T18:53:16.432Z,32.69
2023-05-03T18:55:46.907Z,32.67
2023-05-03T18:58:18.044Z,32.69
2023-05-03T19:00:48.410Z,32.68
2023-05-03T19:03:18.775Z,32.70
2023-05-03T19:05:49.389Z,32.64
2023-05-03T19:08:19.676Z,32.63
2023-05-03T19:10:49.930Z,32.67
2023-05-03T19:13:20.452Z,32.62
2023-05-03T19:15:51.057Z,32.67
2023-05-03T19:18:21.597Z,32.68
2023-05-03T19:20:53.514Z,32.67
2023-05-03T19:23:23.876Z,32.63
2023-05-03T19:25:54.831Z,32.64
2023-05-03T19:28:25.338Z,32.63
2023-05-03T19:30:55.894Z,32.63
2023-05-03T19:33:26.420Z,32.63
2023-05-03T19:35:57.426Z,32.63
2023-05-03T19:38:27.864Z,32.61
2023-05-03T19:41:02.109Z,32.63
2023-05-03T19:43:33.757Z,32.59
2023-05-03T19:46:05.396Z,32.61
2023-05-03T19:48:36.682Z,32.59
2023-05-03T19:51:08.627Z,32.62
2023-05-03T19:53:40.136Z,32.58
2023-05-03T19:56:12.027Z,32.59
2023-05-03T19:58:42.534Z,32.59
2023-05-03T20:01:13.257Z,32.58
2023-05-03T20:03:44.869Z,32.58
2023-05-03T20:06:16.241Z,32.60
2023-05-03T20:08:46.598Z,32.57
2023-05-03T20:11:16.866Z,32.56
2023-05-03T20:13:46.893Z,32.55
2023-05-03T20:16:19.318Z,32.54
2023-05-03T20:18:51.367Z,32.54
2023-05-03T20:21:21.962Z,32.55
2023-05-03T20:23:54.329Z,32.54
2023-05-03T20:26:24.806Z,32.53
2023-05-03T20:28:55.179Z,32.51
2023-05-03T20:31:25.605Z,32.49
2023-05-03T20:33:55.913Z,32.52
2023-05-03T20:36:26.376Z,32.51
2023-05-03T20:38:58.372Z,32.51
2023-05-03T20:41:29.210Z,32.53
2023-05-03T20:44:01.660Z,32.53
2023-05-03T20:46:32.153Z,32.53
2023-05-03T20:49:02.464Z,32.54
2023-05-03T20:51:35.934Z,32.49
2023-05-03T20:54:07.356Z,32.51
2023-05-03T20:56:37.945Z,32.51
2023-05-03T20:59:08.388Z,32.48
2023-05-03T21:01:43.028Z,32.52
2023-05-03T21:04:13.629Z,32.48
2023-05-03T21:06:45.444Z,32.48
2023-05-03T21:09:15.641Z,32.46
2023-05-03T21:11:45.866Z,32.48
2023-05-03T21:14:16.809Z,32.48
2023-05-03T21:16:47.803Z,32.48
2023-05-03T21:19:18.278Z,32.44
2023-05-03T21:21:48.728Z,32.44
2023-05-03T21:24:18.984Z,32.44
2023-05-03T21:26:49.348Z,32.44
2023-05-03T21:29:19.734Z,32.43
2023-05-03T21:31:50.045Z,32.43
2023-05-03T21:34:21.824Z,32.44
2023-05-03T21:36:52.896Z,32.45
2023-05-03T21:39:25.470Z,32.40
2023-05-03T21:41:55.702Z,32.42
2023-05-03T21:44:26.475Z,32.42
2023-05-03T21:46:56.949Z,32.42
2023-05-03T21:49:27.423Z,32.39
2023-05-03T21:51:57.745Z,32.37
2023-05-03T21:54:28.980Z,32.40
2023-05-03T21:56:58.908Z,32.40
2023-05-03T21:59:29.068Z,32.40
2023-05-03T22:01:59.685Z,32.38
2023-05-03T22:04:30.345Z,32.40
2023-05-03T22:07:00.460Z,32.39
2023-05-03T22:09:30.529Z,32.39
2023-05-03T22:12:05.928Z,32.39
2023-05-03T22:14:42.834Z,32.38
2023-05-03T22:17:13.156Z,32.40
2023-05-03T22:19:43.502Z,32.39
2023-05-03T22:22:14.002Z,32.39
2023-05-03T22:24:44.153Z,32.36
2023-05-03T22:27:14.530Z,32.37
2023-05-03T22:29:44.917Z,32.40
2023-05-03T22:32:15.455Z,32.37
2023-05-03T22:34:47.430Z,32.36
2023-05-03T22:37:17.842Z,32.34
2023-05-03T22:39:48.179Z,32.35
2023-05-03T22:42:18.872Z,32.36
2023-05-03T22:44:49.668Z,32.36
2023-05-03T22:47:20.141Z,32.38
2023-05-03T22:49:50.529Z,32.36
2023-05-03T22:52:21.100Z,32.33
2023-05-03T22:54:51.487Z,32.34
2023-05-03T22:57:21.726Z,32.35
2023-05-03T22:59:52.053Z,32.34
2023-05-03T23:02:22.481Z,32.32
2023-05-03T23:04:52.909Z,32.33
2023-05-03T23:07:23.400Z,32.32
2023-05-03T23:10:03.593Z,32.33
2023-05-03T23:12:34.747Z,32.33
2023-05-03T23:15:05.177Z,32.33
2023-05-03T23:17:36.360Z,32.33
2023-05-03T23:20:09.303Z,32.29
2023-05-03T23:22:41.777Z,32.33
2023-05-03T23:25:12.354Z,32.30
2023-05-03T23:27:42.635Z,32.33
2023-05-03T23:30:13.802Z,32.31
2023-05-03T23:32:44.487Z,32.36
2023-05-03T23:35:15.722Z,32.30
2023-05-03T23:37:47.112Z,32.25
2023-05-03T23:40:17.746Z,32.27
2023-05-03T23:42:49.171Z,32.23
2023-05-03T23:45:19.657Z,32.18
2023-05-03T23:47:50.232Z,32.24
2023-05-03T23:50:20.684Z,32.20
2023-05-03T23:52:51.029Z,32.24
2023-05-03T23:55:21.546Z,32.24
2023-05-03T23:57:52.102Z,32.30
